createdAt,value
2022-12-03T00:01:49.086Z,6.86
2022-12-03T00:04:16.034Z,6.87
2022-12-03T00:06:42.919Z,6.87
2022-12-03T00:09:10.470Z,6.94
2022-12-03T00:11:38.120Z,6.93
2022-12-03T00:14:05.096Z,6.90
2022-12-03T00:16:34.051Z,6.97
2022-12-03T00:19:01.010Z,6.92
2022-12-03T00:21:29.505Z,6.97
2022-12-03T00:23:56.614Z,6.93
2022-12-03T00:26:23.554Z,6.96
2022-12-03T00:28:51.303Z,6.91
2022-12-03T00:31:18.776Z,6.92
2022-12-03T00:33:45.609Z,6.86
2022-12-03T00:36:12.445Z,6.89
2022-12-03T00:38:39.309Z,6.78
2022-12-03T00:41:06.156Z,6.76
2022-12-03T00:43:33.093Z,6.76
2022-12-03T00:46:00.296Z,6.83
2022-12-03T00:48:27.394Z,6.53
2022-12-03T00:50:54.273Z,6.59
2022-12-03T00:53:21.186Z,6.43
2022-12-03T00:55:50.646Z,6.54
2022-12-03T00:58:18.046Z,6.68
2022-12-03T01:00:44.932Z,6.62
2022-12-03T01:03:11.821Z,6.69
2022-12-03T01:05:38.762Z,6.69
2022-12-03T01:08:05.847Z,6.63
2022-12-03T01:10:32.781Z,6.70
2022-12-03T01:12:59.602Z,6.76
2022-12-03T01:15:26.434Z,6.79
2022-12-03T01:17:54.348Z,6.77
2022-12-03T01:20:21.256Z,6.77
2022-12-03T01:22:48.227Z,6.52
2022-12-03T01:25:15.170Z,6.70
2022-12-03T01:27:42.134Z,6.68
2022-12-03T01:30:09.760Z,6.78
2022-12-03T01:32:36.611Z,6.83
2022-12-03T01:35:04.952Z,6.76
2022-12-03T01:37:33.940Z,6.80
2022-12-03T01:40:00.764Z,6.76
2022-12-03T01:42:39.504Z,6.66
2022-12-03T01:45:07.362Z,6.82
2022-12-03T01:47:36.775Z,6.89
2022-12-03T01:50:30.444Z,6.73
2022-12-03T01:53:00.540Z,6.80
2022-12-03T01:55:27.769Z,6.80
2022-12-03T01:57:59.161Z,6.94
2022-12-03T02:00:27.766Z,6.90
2022-12-03T02:02:58.104Z,6.77
2022-12-03T02:05:30.048Z,6.69
2022-12-03T02:07:58.007Z,6.52
2022-12-03T02:10:34.567Z,6.49
2022-12-03T02:13:06.179Z,6.54
2022-12-03T02:15:33.338Z,6.54
2022-12-03T02:18:00.732Z,6.79
2022-12-03T02:20:27.839Z,6.63
2022-12-03T02:23:05.171Z,6.55
2022-12-03T02:25:34.710Z,6.51
2022-12-03T02:28:03.057Z,6.63
2022-12-03T02:30:31.335Z,6.72
2022-12-03T02:32:59.447Z,6.55
2022-12-03T02:35:30.263Z,6.58
2022-12-03T02:38:07.668Z,6.76
2022-12-03T02:40:34.740Z,6.82
2022-12-03T02:43:03.456Z,6.74
2022-12-03T02:45:42.893Z,6.73
2022-12-03T02:48:21.509Z,6.91
2022-12-03T02:50:58.901Z,7.00
2022-12-03T02:53:37.996Z,7.03
2022-12-03T02:56:05.598Z,6.88
2022-12-03T02:58:33.918Z,7.02
2022-12-03T03:01:03.973Z,7.04
2022-12-03T03:03:32.465Z,7.03
2022-12-03T03:06:02.387Z,6.83
2022-12-03T03:08:30.919Z,6.85
2022-12-03T03:11:00.589Z,7.07
2022-12-03T03:13:29.537Z,7.10
2022-12-03T03:15:56.660Z,7.09
2022-12-03T03:18:23.687Z,7.02
2022-12-03T03:20:50.610Z,6.74
2022-12-03T03:23:20.192Z,7.02
2022-12-03T03:25:54.052Z,6.91
2022-12-03T03:28:22.764Z,6.95
2022-12-03T03:30:49.793Z,6.81
2022-12-03T03:33:16.991Z,7.01
2022-12-03T03:35:45.401Z,6.94
2022-12-03T03:38:12.746Z,6.94
2022-12-03T03:40:39.932Z,6.85
2022-12-03T03:43:07.607Z,6.74
2022-12-03T03:45:34.764Z,6.74
2022-12-03T03:48:01.802Z,6.80
2022-12-03T03:50:30.951Z,6.65
2022-12-03T03:53:00.099Z,6.82
2022-12-03T03:55:27.466Z,6.63
2022-12-03T03:57:54.788Z,6.69
2022-12-03T04:00:22.022Z,6.79
2022-12-03T04:02:48.881Z,6.85
2022-12-03T04:05:19.167Z,6.84
2022-12-03T04:07:46.564Z,6.89
2022-12-03T04:10:33.131Z,7.04
2022-12-03T04:13:00.573Z,6.77
2022-12-03T04:15:28.518Z,6.79
2022-12-03T04:18:14.068Z,6.79
2022-12-03T04:20:41.716Z,6.78
2022-12-03T04:23:09.283Z,6.72
2022-12-03T04:25:55.023Z,6.53
2022-12-03T04:28:39.998Z,6.76
2022-12-03T04:31:25.912Z,6.92
2022-12-03T04:34:11.610Z,6.96
2022-12-03T04:36:38.675Z,6.85
2022-12-03T04:39:05.616Z,7.07
2022-12-03T04:41:32.581Z,7.10
2022-12-03T04:44:19.508Z,7.07
2022-12-03T04:46:46.310Z,7.19
2022-12-03T04:49:13.319Z,7.11
2022-12-03T04:51:40.174Z,7.16
2022-12-03T04:54:07.022Z,7.07
2022-12-03T04:56:33.888Z,7.00
2022-12-03T04:59:00.799Z,6.72
2022-12-03T05:01:27.852Z,6.86
2022-12-03T05:03:54.924Z,6.85
2022-12-03T05:06:21.991Z,6.77
2022-12-03T05:08:48.895Z,6.92
2022-12-03T05:11:15.838Z,6.92
2022-12-03T05:13:43.298Z,6.90
2022-12-03T05:16:10.537Z,6.81
2022-12-03T05:18:37.489Z,6.96
2022-12-03T05:21:04.497Z,6.97
2022-12-03T05:23:32.285Z,6.96
2022-12-03T05:25:59.126Z,6.94
2022-12-03T05:28:26.064Z,6.84
2022-12-03T05:30:53.058Z,6.82
2022-12-03T05:33:20.611Z,6.48
2022-12-03T05:35:47.862Z,6.40
2022-12-03T05:38:14.968Z,6.44
2022-12-03T05:40:42.116Z,6.32
2022-12-03T05:43:08.984Z,6.53
2022-12-03T05:45:38.875Z,6.65
2022-12-03T05:48:09.085Z,6.80
2022-12-03T05:50:38.395Z,6.75
2022-12-03T05:53:15.636Z,6.72
2022-12-03T05:55:42.617Z,6.92
2022-12-03T05:58:09.915Z,6.88
2022-12-03T06:00:42.329Z,6.90
2022-12-03T06:03:10.734Z,6.75
2022-12-03T06:05:37.977Z,7.02
2022-12-03T06:08:05.085Z,7.15
2022-12-03T06:10:32.573Z,7.13
2022-12-03T06:12:59.580Z,6.86
2022-12-03T06:15:26.929Z,6.87
2022-12-03T06:17:53.860Z,6.68
2022-12-03T06:20:21.529Z,6.76
2022-12-03T06:22:50.144Z,6.76
2022-12-03T06:25:17.425Z,7.03
2022-12-03T06:27:44.801Z,7.18
2022-12-03T06:30:14.858Z,7.28
2022-12-03T06:32:41.846Z,7.28
2022-12-03T06:40:24.459Z,7.24
2022-12-03T06:42:51.820Z,7.52
2022-12-03T06:45:26.226Z,7.53
2022-12-03T06:47:53.023Z,7.47
2022-12-03T06:50:19.844Z,7.32
2022-12-03T06:52:47.148Z,7.42
2022-12-03T06:55:14.156Z,7.58
2022-12-03T06:57:43.637Z,7.46
2022-12-03T07:00:11.158Z,7.47
2022-12-03T07:02:38.147Z,7.48
2022-12-03T07:05:05.646Z,7.46
2022-12-03T07:07:32.675Z,7.46
2022-12-03T07:09:59.798Z,7.39
2022-12-03T07:12:26.726Z,7.35
2022-12-03T07:14:54.016Z,7.43
2022-12-03T07:17:21.139Z,7.46
2022-12-03T07:19:49.639Z,7.30
2022-12-03T07:22:16.768Z,7.25
2022-12-03T07:24:43.862Z,7.31
2022-12-03T07:27:10.788Z,7.49
2022-12-03T07:29:37.688Z,7.46
2022-12-03T07:32:05.361Z,7.44
2022-12-03T07:34:32.258Z,7.57
2022-12-03T07:36:59.139Z,7.39
2022-12-03T07:39:26.186Z,7.50
2022-12-03T07:41:53.124Z,7.56
2022-12-03T07:44:20.009Z,7.53
2022-12-03T07:46:47.146Z,7.65
2022-12-03T07:49:14.155Z,7.64
2022-12-03T07:51:41.642Z,7.68
2022-12-03T07:54:08.882Z,7.49
2022-12-03T07:56:36.050Z,7.65
2022-12-03T07:59:03.049Z,7.58
2022-12-03T08:01:30.061Z,7.79
2022-12-03T08:03:57.264Z,7.85
2022-12-03T08:06:24.235Z,7.89
2022-12-03T08:08:51.619Z,7.94
2022-12-03T08:11:23.007Z,7.95
2022-12-03T08:13:49.871Z,7.94
2022-12-03T08:16:19.423Z,7.92
2022-12-03T08:18:47.560Z,8.00
2022-12-03T08:21:17.314Z,8.08
2022-12-03T08:23:44.333Z,7.89
2022-12-03T08:26:23.388Z,8.12
2022-12-03T08:28:51.411Z,7.97
2022-12-03T08:31:32.703Z,8.17
2022-12-03T08:34:20.689Z,8.18
2022-12-03T08:36:51.021Z,8.49
2022-12-03T08:39:34.361Z,8.42
2022-12-03T08:42:38.137Z,8.43
2022-12-03T08:45:32.575Z,8.41
2022-12-03T08:48:06.051Z,8.30
2022-12-03T08:50:39.418Z,8.48
2022-12-03T08:53:38.459Z,8.38
2022-12-03T08:56:33.247Z,8.16
2022-12-03T08:59:30.810Z,8.34
2022-12-03T09:02:00.836Z,8.39
2022-12-03T09:04:27.837Z,8.26
2022-12-03T09:06:55.556Z,8.37
2022-12-03T09:09:24.091Z,8.34
2022-12-03T09:11:51.203Z,8.68
2022-12-03T09:14:21.139Z,8.62
2022-12-03T09:16:49.235Z,8.90
2022-12-03T09:19:16.278Z,8.88
2022-12-03T09:21:43.841Z,9.01
2022-12-03T09:24:10.785Z,9.04
2022-12-03T09:26:37.873Z,8.94
2022-12-03T09:29:10.422Z,9.08
2022-12-03T09:31:39.068Z,9.16
2022-12-03T09:34:06.554Z,9.20
2022-12-03T09:36:33.865Z,9.14
2022-12-03T09:39:00.840Z,9.12
2022-12-03T09:41:27.871Z,9.13
2022-12-03T09:44:05.741Z,8.82
2022-12-03T09:46:36.288Z,9.02
2022-12-03T09:49:05.111Z,9.19
2022-12-03T09:51:35.342Z,9.25
2022-12-03T09:54:06.366Z,9.33
2022-12-03T09:56:37.698Z,9.17
2022-12-03T09:59:13.774Z,8.82
2022-12-03T10:01:40.965Z,8.98
2022-12-03T10:04:08.275Z,8.98
2022-12-03T10:06:37.138Z,8.91
2022-12-03T10:09:06.902Z,9.02
2022-12-03T10:11:35.770Z,9.24
2022-12-03T10:14:05.607Z,9.16
2022-12-03T10:16:36.448Z,8.95
2022-12-03T10:19:03.515Z,9.13
2022-12-03T10:21:39.156Z,9.16
2022-12-03T10:24:27.646Z,9.07
2022-12-03T10:26:57.925Z,9.09
2022-12-03T10:29:33.122Z,9.03
2022-12-03T10:32:02.367Z,9.19
2022-12-03T10:34:40.642Z,9.01
2022-12-03T10:37:18.139Z,9.18
2022-12-03T10:39:56.371Z,9.26
2022-12-03T10:42:25.589Z,9.30
2022-12-03T10:45:07.633Z,9.44
2022-12-03T10:47:34.617Z,9.45
2022-12-03T10:50:06.010Z,9.56
2022-12-03T10:52:32.957Z,9.58
2022-12-03T10:54:59.981Z,9.50
2022-12-03T10:57:26.877Z,9.53
2022-12-03T10:59:53.775Z,9.55
2022-12-03T11:02:24.770Z,9.29
2022-12-03T11:04:52.442Z,9.50
2022-12-03T11:07:21.541Z,9.53
2022-12-03T11:09:51.239Z,9.45
2022-12-03T11:12:22.663Z,9.58
2022-12-03T11:14:51.064Z,9.66
2022-12-03T11:17:40.480Z,9.80
2022-12-03T11:20:36.109Z,9.79
2022-12-03T11:23:02.998Z,9.71
2022-12-03T11:25:31.561Z,9.74
2022-12-03T11:28:10.355Z,9.65
2022-12-03T11:30:49.316Z,9.55
2022-12-03T11:33:27.623Z,9.68
2022-12-03T11:36:03.801Z,9.76
2022-12-03T11:38:59.909Z,9.64
2022-12-03T11:41:32.964Z,9.71
2022-12-03T11:44:25.300Z,9.67
2022-12-03T11:46:52.451Z,9.60
2022-12-03T11:49:45.803Z,9.71
2022-12-03T11:52:22.038Z,9.68
2022-12-03T11:54:53.362Z,9.58
2022-12-03T11:57:29.766Z,9.46
2022-12-03T11:59:58.934Z,9.53
2022-12-03T12:03:17.068Z,9.52
2022-12-03T12:05:45.242Z,9.53
2022-12-03T12:08:19.572Z,9.35
2022-12-03T12:10:48.780Z,9.56
2022-12-03T12:13:31.323Z,9.60
2022-12-03T12:16:02.657Z,9.80
2022-12-03T12:18:42.130Z,9.69
2022-12-03T12:21:44.262Z,9.74
2022-12-03T12:24:29.703Z,9.81
2022-12-03T12:26:58.556Z,9.63
2022-12-03T12:29:25.446Z,9.81
2022-12-03T12:31:59.632Z,9.84
2022-12-03T12:34:26.702Z,9.91
2022-12-03T12:36:57.158Z,9.96
2022-12-03T12:39:25.437Z,10.05
2022-12-03T12:41:52.893Z,10.02
2022-12-03T12:44:23.692Z,9.98
2022-12-03T12:46:53.758Z,10.02
2022-12-03T12:49:26.809Z,9.81
2022-12-03T12:51:53.945Z,9.83
2022-12-03T12:54:21.169Z,9.77
2022-12-03T12:56:50.386Z,9.43
2022-12-03T12:59:20.294Z,9.62
2022-12-03T13:01:49.226Z,9.73
2022-12-03T13:04:26.352Z,9.78
2022-12-03T13:06:54.189Z,9.75
2022-12-03T13:09:25.222Z,9.55
2022-12-03T13:11:54.169Z,9.48
2022-12-03T13:14:26.245Z,9.47
2022-12-03T13:16:55.280Z,9.50
2022-12-03T13:19:26.449Z,9.43
2022-12-03T13:22:00.149Z,9.48
2022-12-03T13:24:35.978Z,9.31
2022-12-03T13:27:31.904Z,9.27
2022-12-03T13:30:15.820Z,8.94
2022-12-03T13:32:43.676Z,9.22
2022-12-03T13:35:10.612Z,9.38
2022-12-03T13:37:38.529Z,9.10
2022-12-03T13:40:21.026Z,9.12
2022-12-03T13:42:48.579Z,9.14
2022-12-03T13:45:15.498Z,9.17
2022-12-03T13:47:49.189Z,8.89
2022-12-03T13:50:36.665Z,8.90
2022-12-03T13:53:26.692Z,8.85
2022-12-03T13:56:30.104Z,8.66
2022-12-03T13:59:00.169Z,8.55
2022-12-03T14:01:28.418Z,8.64
2022-12-03T14:03:55.422Z,8.54
2022-12-03T14:06:22.720Z,8.57
2022-12-03T14:08:49.605Z,8.37
2022-12-03T14:11:35.017Z,8.62
2022-12-03T14:14:02.024Z,8.53
2022-12-03T14:16:29.687Z,8.69
2022-12-03T14:18:56.520Z,8.66
2022-12-03T14:21:23.439Z,8.45
2022-12-03T14:23:50.332Z,8.63
2022-12-03T14:26:17.252Z,8.69
2022-12-03T14:28:44.099Z,8.74
2022-12-03T14:31:11.047Z,8.51
2022-12-03T14:33:37.985Z,8.39
2022-12-03T14:36:05.179Z,8.26
2022-12-03T14:38:32.164Z,8.11
2022-12-03T14:40:59.187Z,8.14
2022-12-03T14:43:26.070Z,8.22
2022-12-03T14:45:53.000Z,8.28
2022-12-03T14:48:21.104Z,8.20
2022-12-03T14:50:48.119Z,8.26
2022-12-03T14:53:15.001Z,8.20
2022-12-03T14:55:41.869Z,8.22
2022-12-03T14:58:08.708Z,8.28
2022-12-03T15:00:36.697Z,8.26
2022-12-03T15:03:03.730Z,8.34
2022-12-03T15:05:30.833Z,8.40
2022-12-03T15:07:57.836Z,8.48
2022-12-03T15:10:24.799Z,8.32
2022-12-03T15:19:33.273Z,8.33
2022-12-03T15:22:00.164Z,8.34
2022-12-03T15:24:27.091Z,8.19
2022-12-03T15:26:53.982Z,8.30
2022-12-03T15:29:21.021Z,8.21
2022-12-03T15:31:48.018Z,8.09
2022-12-03T15:34:20.460Z,8.13
2022-12-03T15:36:49.262Z,8.09
2022-12-03T15:39:16.143Z,7.83
2022-12-03T15:41:44.494Z,7.83
2022-12-03T15:44:11.385Z,7.93
2022-12-03T15:46:46.571Z,8.00
2022-12-03T15:49:14.366Z,8.08
2022-12-03T15:51:41.359Z,7.81
2022-12-03T15:54:09.008Z,7.80
2022-12-03T15:56:37.711Z,7.63
2022-12-03T15:59:04.765Z,7.68
2022-12-03T16:01:31.730Z,7.84
2022-12-03T16:03:58.681Z,7.83
2022-12-03T16:06:25.545Z,7.82
2022-12-03T16:08:52.363Z,7.77
2022-12-03T16:11:19.294Z,7.65
2022-12-03T16:13:46.247Z,7.71
2022-12-03T16:16:13.178Z,7.83
2022-12-03T16:18:40.143Z,7.83
2022-12-03T16:21:07.015Z,7.69
2022-12-03T16:23:34.043Z,7.73
2022-12-03T16:26:02.166Z,7.53
2022-12-03T16:28:29.072Z,7.72
2022-12-03T16:30:55.953Z,7.81
2022-12-03T16:33:27.560Z,7.76
2022-12-03T16:35:55.006Z,7.63
2022-12-03T16:38:21.931Z,7.77
2022-12-03T16:40:48.792Z,7.71
2022-12-03T16:43:16.015Z,7.93
2022-12-03T16:45:42.857Z,8.01
2022-12-03T16:48:09.767Z,8.06
2022-12-03T16:50:37.697Z,8.05
2022-12-03T16:53:04.617Z,7.80
2022-12-03T16:55:31.535Z,7.50
2022-12-03T16:57:58.451Z,7.79
2022-12-03T17:00:26.019Z,7.63
2022-12-03T17:02:53.015Z,7.59
2022-12-03T17:05:19.927Z,7.58
2022-12-03T17:07:46.935Z,7.61
2022-12-03T17:10:14.164Z,7.47
2022-12-03T17:13:08.210Z,7.64
2022-12-03T17:15:28.181Z,7.53
2022-12-03T17:17:55.149Z,7.43
2022-12-03T17:20:22.241Z,7.54
2022-12-03T17:22:49.284Z,7.75
2022-12-03T17:25:16.459Z,7.79
2022-12-03T17:27:45.466Z,7.82
2022-12-03T17:30:13.868Z,7.65
2022-12-03T17:32:40.784Z,7.23
2022-12-03T17:35:08.827Z,7.89
2022-12-03T17:37:36.173Z,7.70
2022-12-03T17:40:05.673Z,7.72
2022-12-03T17:42:32.592Z,7.63
2022-12-03T17:44:59.504Z,7.71
2022-12-03T17:47:26.348Z,7.59
2022-12-03T17:49:53.682Z,7.74
2022-12-03T17:52:20.914Z,7.68
2022-12-03T17:57:38.453Z,7.66
2022-12-03T18:00:08.577Z,7.61
2022-12-03T18:02:42.340Z,7.63
2022-12-03T18:05:10.130Z,7.35
2022-12-03T18:07:37.270Z,7.35
2022-12-03T18:10:04.694Z,7.37
2022-12-03T18:12:31.766Z,7.51
2022-12-03T18:14:58.650Z,7.47
2022-12-03T18:17:25.711Z,7.59
2022-12-03T18:19:52.951Z,7.44
2022-12-03T18:22:20.594Z,7.44
2022-12-03T18:24:51.530Z,7.53
2022-12-03T18:27:21.228Z,7.38
2022-12-03T18:29:48.720Z,7.52
2022-12-03T18:32:28.201Z,7.38
2022-12-03T18:34:57.046Z,7.53
2022-12-03T18:37:27.094Z,7.70
2022-12-03T18:39:55.235Z,7.60
2022-12-03T18:42:23.810Z,7.58
2022-12-03T18:44:52.803Z,7.72
2022-12-03T18:47:23.330Z,7.72
2022-12-03T18:49:51.187Z,7.36
2022-12-03T18:52:22.030Z,7.47
2022-12-03T18:54:49.313Z,7.25
2022-12-03T18:57:17.641Z,7.32
2022-12-03T18:59:44.654Z,7.32
2022-12-03T19:02:54.365Z,7.26
2022-12-03T19:05:11.111Z,7.36
2022-12-03T19:07:38.092Z,7.44
2022-12-03T19:10:05.867Z,7.21
2022-12-03T19:12:33.733Z,7.27
2022-12-03T19:15:01.139Z,7.29
2022-12-03T19:17:28.189Z,7.17
2022-12-03T19:19:55.705Z,7.50
2022-12-03T19:22:23.658Z,7.45
2022-12-03T19:24:50.717Z,7.43
2022-12-03T19:27:20.313Z,7.32
2022-12-03T19:29:50.344Z,7.45
2022-12-03T19:32:17.596Z,7.38
2022-12-03T19:34:44.476Z,7.50
2022-12-03T19:37:11.399Z,7.51
2022-12-03T19:39:38.453Z,7.39
2022-12-03T19:42:05.397Z,7.34
2022-12-03T19:44:32.900Z,7.36
2022-12-03T19:46:59.770Z,7.24
2022-12-03T19:49:27.259Z,7.30
2022-12-03T19:51:54.618Z,6.96
2022-12-03T19:54:21.494Z,7.16
2022-12-03T19:56:48.629Z,7.10
2022-12-03T19:59:15.806Z,6.95
2022-12-03T20:01:43.189Z,7.16
2022-12-03T20:04:11.134Z,7.09
2022-12-03T20:06:39.225Z,7.09
2022-12-03T20:09:17.633Z,7.30
2022-12-03T20:12:04.815Z,7.43
2022-12-03T20:29:41.976Z,7.40
2022-12-03T20:32:55.643Z,7.24
2022-12-03T20:35:23.588Z,7.20
2022-12-03T20:37:50.384Z,7.42
2022-12-03T20:40:17.572Z,7.32
2022-12-03T20:42:47.641Z,7.30
2022-12-03T20:45:15.117Z,7.27
2022-12-03T20:47:41.984Z,7.38
2022-12-03T20:50:09.219Z,7.25
2022-12-03T20:52:36.062Z,7.33
2022-12-03T20:55:02.896Z,7.38
2022-12-03T20:57:32.636Z,7.39
2022-12-03T20:59:59.613Z,7.41
2022-12-03T21:02:26.815Z,7.22
2022-12-03T21:04:53.844Z,7.36
2022-12-03T21:07:20.741Z,7.30
2022-12-03T21:09:47.580Z,7.17
2022-12-03T21:12:15.257Z,7.12
2022-12-03T21:14:42.274Z,7.29
2022-12-03T21:17:09.822Z,7.32
2022-12-03T21:19:38.761Z,7.11
2022-12-03T21:22:06.231Z,7.03
2022-12-03T21:24:33.675Z,7.26
2022-12-03T21:27:00.768Z,7.37
2022-12-03T21:29:27.641Z,7.27
2022-12-03T21:31:54.588Z,7.23
2022-12-03T21:34:21.660Z,7.25
2022-12-03T21:36:48.659Z,7.26
2022-12-03T21:39:15.597Z,7.00
2022-12-03T21:42:18.837Z,6.98
2022-12-03T21:44:29.355Z,6.75
2022-12-03T21:47:10.001Z,6.91
2022-12-03T21:49:41.484Z,7.15
2022-12-03T21:52:08.542Z,7.03
2022-12-03T21:54:35.509Z,7.04
2022-12-03T22:03:46.752Z,7.22
2022-12-03T22:06:14.377Z,7.10
2022-12-03T22:08:41.821Z,7.18
2022-12-03T22:11:15.079Z,7.18
2022-12-03T22:13:43.459Z,7.21
2022-12-03T22:16:16.286Z,7.06
2022-12-03T22:18:43.422Z,7.25
2022-12-03T22:21:13.240Z,7.21
2022-12-03T22:23:40.676Z,7.29
2022-12-03T22:26:12.028Z,7.15
2022-12-03T22:28:42.174Z,7.19
2022-12-03T22:31:09.751Z,7.01
2022-12-03T22:33:39.695Z,7.15
2022-12-03T22:36:13.407Z,7.18
2022-12-03T22:38:47.663Z,7.16
2022-12-03T22:41:15.746Z,7.03
2022-12-03T22:43:43.382Z,7.06
2022-12-03T22:46:12.754Z,6.99
2022-12-03T22:48:41.964Z,6.94
2022-12-03T22:51:26.795Z,6.96
2022-12-03T22:53:57.944Z,7.15
2022-12-03T22:56:26.168Z,7.09
2022-12-03T22:58:53.466Z,7.13
2022-12-03T23:01:23.041Z,6.99
2022-12-03T23:03:50.756Z,7.11
2022-12-03T23:06:18.699Z,6.95
2022-12-03T23:08:45.982Z,6.83
2022-12-03T23:11:12.903Z,6.72
2022-12-03T23:13:40.203Z,6.58
2022-12-03T23:16:08.852Z,6.77
2022-12-03T23:18:35.881Z,6.69
2022-12-03T23:21:02.818Z,6.89
2022-12-03T23:23:29.710Z,6.94
2022-12-03T23:26:04.388Z,6.87
2022-12-03T23:28:34.178Z,7.09
2022-12-03T23:31:01.247Z,7.02
2022-12-03T23:33:28.903Z,6.71
2022-12-03T23:35:55.781Z,6.59
2022-12-03T23:38:22.644Z,6.62
2022-12-03T23:40:49.759Z,6.62
2022-12-03T23:43:16.621Z,6.61
2022-12-03T23:45:43.478Z,6.64
2022-12-03T23:48:10.391Z,6.58
2022-12-03T23:50:41.319Z,6.63
2022-12-03T23:53:08.415Z,6.57
2022-12-03T23:55:39.281Z,6.63
2022-12-03T23:58:06.137Z,6.59
